Time;durP1;ratioP1;P1;durP2;ratioP2;P2;SDS_P1;SDS_P2;PMS_P1;PMS_P2;Temp;Humidity;BMP_temperature;BMP_pressure;BME280_temperature;BME280_humidity;BME280_pressure;Samples;Min_cycle;Max_cycle;Signal;HPM_P1;HPM_P2
2022/09/13 00:01:44;;;;;;;5.03;3.60;;;;;;;;;;5323073;28;20066;-67
2022/09/13 00:04:15;;;;;;;7.47;4.05;;;;;;;;;;5322514;28;20261;-67
2022/09/13 00:06:47;;;;;;;4.43;3.27;;;;;;;;;;5322867;28;20432;-67
2022/09/13 00:09:18;;;;;;;4.75;3.42;;;;;;;;;;5323173;28;20328;-67
2022/09/13 00:11:50;;;;;;;3.97;3.33;;;;;;;;;;5322155;28;20383;-67
2022/09/13 00:14:21;;;;;;;5.00;4.22;;;;;;;;;;5323798;28;20568;-67
2022/09/13 00:16:52;;;;;;;5.10;3.47;;;;;;;;;;5326964;28;20102;-67
2022/09/13 00:19:23;;;;;;;6.53;4.28;;;;;;;;;;5326402;28;20099;-67
2022/09/13 00:21:55;;;;;;;3.97;3.50;;;;;;;;;;5326827;27;20049;-67
2022/09/13 00:24:26;;;;;;;4.30;3.63;;;;;;;;;;5325922;28;20419;-68
2022/09/13 00:26:57;;;;;;;4.53;4.13;;;;;;;;;;5327210;28;20386;-67
2022/09/13 00:29:28;;;;;;;3.33;3.03;;;;;;;;;;5326413;28;20426;-67
2022/09/13 00:31:59;;;;;;;6.13;3.70;;;;;;;;;;5326360;27;20448;-67
2022/09/13 00:34:30;;;;;;;7.90;3.80;;;;;;;;;;5326396;28;20426;-67
2022/09/13 00:37:02;;;;;;;4.07;3.67;;;;;;;;;;5327168;28;20315;-66
2022/09/13 00:39:33;;;;;;;3.65;3.15;;;;;;;;;;5325673;28;20153;-67
2022/09/13 00:42:04;;;;;;;4.32;3.92;;;;;;;;;;5326867;28;20051;-67
2022/09/13 00:44:57;;;;;;;5.68;3.95;;;;;;;;;;5326176;28;20370;-67
2022/09/13 00:47:31;;;;;;;4.40;4.00;;;;;;;;;;5325334;28;20293;-67
2022/09/13 00:50:24;;;;;;;5.30;3.60;;;;;;;;;;5326893;28;20011;-67
2022/09/13 00:52:59;;;;;;;3.97;3.50;;;;;;;;;;5325569;28;20035;-67
2022/09/13 00:55:37;;;;;;;5.10;3.90;;;;;;;;;;5326187;28;20103;-67
2022/09/13 00:58:10;;;;;;;5.78;4.05;;;;;;;;;;5326715;28;20016;-67
2022/09/13 01:00:43;;;;;;;5.63;4.30;;;;;;;;;;5325182;28;20027;-67
2022/09/13 01:03:15;;;;;;;6.05;4.25;;;;;;;;;;5326436;28;20020;-66
2022/09/13 01:05:50;;;;;;;6.22;4.13;;;;;;;;;;5325594;28;20015;-67
2022/09/13 01:08:21;;;;;;;5.25;4.20;;;;;;;;;;5325840;28;20026;-67
2022/09/13 01:10:54;;;;;;;5.47;3.97;;;;;;;;;;5325757;28;20098;-67
2022/09/13 01:13:27;;;;;;;6.50;4.15;;;;;;;;;;5325082;28;20474;-67
2022/09/13 01:15:59;;;;;;;4.78;4.13;;;;;;;;;;5326000;28;20355;-66
2022/09/13 01:18:30;;;;;;;5.47;4.25;;;;;;;;;;5325744;28;20053;-67
2022/09/13 01:21:11;;;;;;;8.17;4.10;;;;;;;;;;5325561;28;20024;-67
2022/09/13 01:23:57;;;;;;;5.53;4.10;;;;;;;;;;5325432;28;20261;-67
2022/09/13 01:26:39;;;;;;;4.50;3.60;;;;;;;;;;5325203;28;20034;-67
2022/09/13 01:29:11;;;;;;;4.22;3.55;;;;;;;;;;5325344;28;20103;-67
2022/09/13 01:31:42;;;;;;;6.93;5.00;;;;;;;;;;5325415;28;20106;-67
2022/09/13 01:34:19;;;;;;;7.30;3.92;;;;;;;;;;5325823;28;20043;-67
2022/09/13 01:37:04;;;;;;;5.50;3.97;;;;;;;;;;5324361;28;20039;-67
2022/09/13 01:39:38;;;;;;;4.95;4.55;;;;;;;;;;5325088;28;20020;-67
2022/09/13 01:42:26;;;;;;;7.32;3.97;;;;;;;;;;5325084;28;20367;-67
2022/09/13 01:45:08;;;;;;;4.55;3.67;;;;;;;;;;5325501;28;20031;-67
2022/09/13 01:47:55;;;;;;;4.90;3.63;;;;;;;;;;5324964;28;20060;-67
2022/09/13 01:50:29;;;;;;;4.45;3.90;;;;;;;;;;5324021;28;20023;-67
2022/09/13 01:53:20;;;;;;;5.80;3.60;;;;;;;;;;5325350;28;20024;-67
2022/09/13 01:55:57;;;;;;;4.55;4.07;;;;;;;;;;5312805;28;20061;-67
2022/09/13 01:58:40;;;;;;;4.40;3.53;;;;;;;;;;5324850;28;20025;-67
2022/09/13 02:01:17;;;;;;;4.88;3.42;;;;;;;;;;5325232;28;20386;-67
2022/09/13 02:03:48;;;;;;;5.00;4.47;;;;;;;;;;5323912;28;20356;-67
2022/09/13 02:06:20;;;;;;;5.97;3.58;;;;;;;;;;5325135;28;20069;-67
2022/09/13 02:09:03;;;;;;;5.70;3.58;;;;;;;;;;5324620;28;20016;-67
2022/09/13 02:11:36;;;;;;;5.63;3.67;;;;;;;;;;5323799;28;20385;-68
2022/09/13 02:14:12;;;;;;;6.78;3.45;;;;;;;;;;5324878;28;20019;-68
2022/09/13 02:16:49;;;;;;;7.70;3.47;;;;;;;;;;5323784;28;20026;-67
2022/09/13 02:19:25;;;;;;;5.70;3.60;;;;;;;;;;5325048;28;20016;-67
2022/09/13 02:21:58;;;;;;;5.80;3.97;;;;;;;;;;5324755;28;20523;-67
2022/09/13 02:24:32;;;;;;;7.20;3.42;;;;;;;;;;5323508;27;20023;-67
2022/09/13 02:27:07;;;;;;;5.82;4.03;;;;;;;;;;5324692;28;20024;-67
2022/09/13 02:29:40;;;;;;;4.82;3.60;;;;;;;;;;5324158;28;20319;-67
2022/09/13 02:32:23;;;;;;;6.18;3.70;;;;;;;;;;5323825;28;20024;-67
2022/09/13 02:34:59;;;;;;;4.22;3.10;;;;;;;;;;5324083;28;20024;-68
2022/09/13 02:37:31;;;;;;;5.00;3.88;;;;;;;;;;5324014;28;20362;-67
2022/09/13 02:40:04;;;;;;;7.03;3.65;;;;;;;;;;5323790;28;20020;-67
2022/09/13 02:42:41;;;;;;;5.03;3.42;;;;;;;;;;5323950;28;20098;-67
2022/09/13 02:45:13;;;;;;;4.22;3.45;;;;;;;;;;5323536;27;20047;-68
2022/09/13 02:47:56;;;;;;;6.65;3.78;;;;;;;;;;5323574;27;20075;-68
2022/09/13 02:50:46;;;;;;;3.88;3.40;;;;;;;;;;5323674;28;20098;-67
2022/09/13 02:53:36;;;;;;;4.38;3.55;;;;;;;;;;5323504;28;20541;-67
2022/09/13 02:56:17;;;;;;;7.03;3.88;;;;;;;;;;5324336;28;20032;-67
2022/09/13 02:58:55;;;;;;;5.07;3.60;;;;;;;;;;5323713;28;20058;-67
2022/09/13 03:01:27;;;;;;;6.20;3.35;;;;;;;;;;5323328;28;20012;-68
2022/09/13 03:03:58;;;;;;;4.80;3.33;;;;;;;;;;5324015;28;20024;-68
2022/09/13 03:06:29;;;;;;;6.20;3.63;;;;;;;;;;5322589;28;20113;-68
2022/09/13 03:09:02;;;;;;;6.97;3.50;;;;;;;;;;5323845;28;20031;-67
2022/09/13 03:11:45;;;;;;;5.03;3.65;;;;;;;;;;5323367;28;20055;-68
2022/09/13 03:14:19;;;;;;;6.03;3.92;;;;;;;;;;5323141;28;20020;-68
2022/09/13 03:16:54;;;;;;;6.25;3.63;;;;;;;;;;5323278;28;20020;-68
2022/09/13 03:19:38;;;;;;;4.28;3.75;;;;;;;;;;5323509;28;20148;-68
2022/09/13 03:22:28;;;;;;;5.00;3.72;;;;;;;;;;5323063;28;20058;-68
2022/09/13 03:25:09;;;;;;;8.43;3.53;;;;;;;;;;5323595;28;20020;-67
2022/09/13 03:27:47;;;;;;;3.67;3.38;;;;;;;;;;5322611;28;20023;-68
2022/09/13 03:30:18;;;;;;;6.80;3.97;;;;;;;;;;5323599;28;20019;-67
2022/09/13 03:32:49;;;;;;;5.53;4.15;;;;;;;;;;5322967;28;20432;-67
2022/09/13 03:35:25;;;;;;;5.97;3.90;;;;;;;;;;5322977;28;20042;-67
2022/09/13 03:38:08;;;;;;;3.85;2.72;;;;;;;;;;5323439;28;20020;-67
2022/09/13 03:40:42;;;;;;;4.93;3.63;;;;;;;;;;5322965;28;20104;-67
2022/09/13 03:43:25;;;;;;;6.20;3.50;;;;;;;;;;5322967;28;20470;-68
2022/09/13 03:45:58;;;;;;;4.43;3.65;;;;;;;;;;5323338;28;20019;-67
2022/09/13 03:48:30;;;;;;;4.07;3.17;;;;;;;;;;5322492;28;20032;-67
2022/09/13 03:51:02;;;;;;;5.78;3.65;;;;;;;;;;5326901;28;20020;-67
2022/09/13 03:53:35;;;;;;;3.40;3.08;;;;;;;;;;5327396;28;20482;-67
2022/09/13 03:56:17;;;;;;;4.13;3.53;;;;;;;;;;5327070;27;20023;-68
2022/09/13 03:58:49;;;;;;;4.72;3.28;;;;;;;;;;5327110;28;20020;-69
2022/09/13 04:01:22;;;;;;;5.93;3.60;;;;;;;;;;5327935;27;20028;-69
2022/09/13 04:03:53;;;;;;;8.57;4.00;;;;;;;;;;5326372;28;20023;-68
2022/09/13 04:06:24;;;;;;;5.13;3.63;;;;;;;;;;5327447;28;20103;-68
2022/09/13 04:08:55;;;;;;;8.82;4.00;;;;;;;;;;5327241;28;20290;-68
2022/09/13 04:11:26;;;;;;;7.47;3.80;;;;;;;;;;5326361;28;20114;-69
2022/09/13 04:13:58;;;;;;;5.28;3.40;;;;;;;;;;5327402;28;20258;-68
2022/09/13 04:16:29;;;;;;;4.95;3.45;;;;;;;;;;5326207;28;20520;-68
2022/09/13 04:19:00;;;;;;;5.17;4.07;;;;;;;;;;5327491;28;20071;-68
2022/09/13 04:21:31;;;;;;;5.30;3.67;;;;;;;;;;5326736;28;20359;-68
2022/09/13 04:24:03;;;;;;;5.85;3.72;;;;;;;;;;5326671;28;20019;-68
2022/09/13 04:26:34;;;;;;;4.05;3.10;;;;;;;;;;5326818;28;20051;-68
2022/09/13 04:29:05;;;;;;;4.85;3.70;;;;;;;;;;5327444;27;20019;-68
2022/09/13 04:31:36;;;;;;;5.90;3.60;;;;;;;;;;5325702;28;20047;-68
2022/09/13 04:34:08;;;;;;;3.83;3.17;;;;;;;;;;5326828;28;20265;-68
2022/09/13 04:36:39;;;;;;;4.85;3.55;;;;;;;;;;5326599;28;20152;-68
2022/09/13 04:39:12;;;;;;;4.53;3.53;;;;;;;;;;5326244;28;20276;-68
2022/09/13 04:41:45;;;;;;;5.28;3.95;;;;;;;;;;5326277;28;20050;-66
2022/09/13 04:44:17;;;;;;;5.88;3.80;;;;;;;;;;5326595;28;20019;-66
2022/09/13 04:46:49;;;;;;;4.50;4.10;;;;;;;;;;5324836;28;20055;-66
2022/09/13 04:49:20;;;;;;;6.22;3.72;;;;;;;;;;5325333;28;20011;-66
2022/09/13 04:51:52;;;;;;;8.90;4.18;;;;;;;;;;5323831;28;20058;-69
2022/09/13 04:54:23;;;;;;;4.57;4.07;;;;;;;;;;5325407;28;20016;-67
2022/09/13 04:56:54;;;;;;;6.55;4.70;;;;;;;;;;5324706;28;20266;-67
2022/09/13 04:59:25;;;;;;;4.93;4.10;;;;;;;;;;5323799;28;20459;-67
2022/09/13 05:01:56;;;;;;;5.27;3.83;;;;;;;;;;5324661;28;20762;-66
2022/09/13 05:04:27;;;;;;;11.77;4.25;;;;;;;;;;5324499;28;20557;-67
2022/09/13 05:06:59;;;;;;;5.40;4.07;;;;;;;;;;5324161;28;20677;-67
2022/09/13 05:09:30;;;;;;;7.60;4.18;;;;;;;;;;5324321;28;20790;-67
2022/09/13 05:12:01;;;;;;;4.65;4.25;;;;;;;;;;5324846;28;20382;-67
2022/09/13 05:14:33;;;;;;;5.68;4.57;;;;;;;;;;5323476;28;20606;-67
2022/09/13 05:17:05;;;;;;;6.72;3.75;;;;;;;;;;5324867;28;20386;-67
2022/09/13 05:19:36;;;;;;;7.13;4.25;;;;;;;;;;5323368;28;20008;-67
2022/09/13 05:22:07;;;;;;;5.93;4.60;;;;;;;;;;5324556;28;20027;-66
2022/09/13 05:24:38;;;;;;;5.45;4.05;;;;;;;;;;5324314;28;20740;-66
2022/09/13 05:27:10;;;;;;;4.80;3.90;;;;;;;;;;5323834;28;20030;-69
2022/09/13 05:29:41;;;;;;;7.57;4.20;;;;;;;;;;5324111;28;20307;-68
2022/09/13 05:32:12;;;;;;;5.73;4.33;;;;;;;;;;5324221;28;20028;-67
2022/09/13 05:34:44;;;;;;;5.57;4.05;;;;;;;;;;5323319;28;20253;-66
2022/09/13 05:37:15;;;;;;;5.60;4.72;;;;;;;;;;5324354;28;20382;-70
2022/09/13 05:39:47;;;;;;;6.45;4.57;;;;;;;;;;5323824;28;20471;-68
2022/09/13 05:42:18;;;;;;;7.57;4.70;;;;;;;;;;5323721;28;20030;-68
2022/09/13 05:44:49;;;;;;;6.28;4.43;;;;;;;;;;5323706;28;20020;-69
2022/09/13 05:47:20;;;;;;;6.38;4.22;;;;;;;;;;5289307;28;1013195;-69
2022/09/13 05:49:51;;;;;;;4.93;4.45;;;;;;;;;;5323835;28;20027;-70
2022/09/13 05:52:23;;;;;;;6.95;4.53;;;;;;;;;;5325035;28;20023;-69
2022/09/13 05:54:54;;;;;;;5.07;4.55;;;;;;;;;;5323747;28;20743;-70
2022/09/13 05:57:25;;;;;;;9.27;4.15;;;;;;;;;;5324730;28;20415;-68
2022/09/13 05:59:56;;;;;;;6.97;5.60;;;;;;;;;;5324949;28;20586;-68
2022/09/13 06:02:27;;;;;;;6.13;4.85;;;;;;;;;;5323657;28;20760;-69
2022/09/13 06:04:58;;;;;;;5.77;5.03;;;;;;;;;;5325202;27;20744;-68
2022/09/13 06:07:30;;;;;;;9.98;4.95;;;;;;;;;;5324311;28;20312;-68
2022/09/13 06:10:01;;;;;;;7.32;5.07;;;;;;;;;;5324019;28;20020;-70
2022/09/13 06:12:33;;;;;;;8.23;5.13;;;;;;;;;;5323286;28;20039;-68
2022/09/13 06:15:04;;;;;;;6.65;5.85;;;;;;;;;;5324882;28;20012;-68
2022/09/13 06:17:35;;;;;;;6.80;5.07;;;;;;;;;;5323271;28;20039;-68
2022/09/13 06:20:08;;;;;;;6.43;5.57;;;;;;;;;;5324291;28;20641;-68
2022/09/13 06:22:39;;;;;;;9.07;5.22;;;;;;;;;;5324127;28;20023;-67
2022/09/13 06:25:10;;;;;;;8.80;5.97;;;;;;;;;;5323643;28;20024;-67
2022/09/13 06:27:41;;;;;;;7.93;5.50;;;;;;;;;;5323367;28;20024;-70
2022/09/13 06:30:14;;;;;;;7.80;5.63;;;;;;;;;;5323363;28;20833;-70
2022/09/13 06:32:45;;;;;;;9.02;5.05;;;;;;;;;;5323423;28;20297;-69
2022/09/13 06:35:16;;;;;;;8.03;5.10;;;;;;;;;;5324348;28;20091;-67
2022/09/13 06:37:48;;;;;;;7.38;6.05;;;;;;;;;;5322625;28;20281;-67
2022/09/13 06:40:21;;;;;;;9.50;5.55;;;;;;;;;;5320560;28;20462;-67
2022/09/13 06:42:52;;;;;;;10.35;5.68;;;;;;;;;;5323297;28;20038;-67
2022/09/13 06:45:24;;;;;;;8.40;6.40;;;;;;;;;;5322832;28;20028;-67
2022/09/13 06:47:55;;;;;;;9.25;6.60;;;;;;;;;;5323191;28;20057;-67
2022/09/13 06:50:26;;;;;;;6.30;5.70;;;;;;;;;;5322765;28;20264;-67
2022/09/13 06:52:57;;;;;;;7.60;6.80;;;;;;;;;;5322924;28;20028;-69
2022/09/13 06:55:28;;;;;;;8.20;6.57;;;;;;;;;;5323298;28;20026;-67
2022/09/13 06:58:00;;;;;;;10.02;6.68;;;;;;;;;;5320965;28;20016;-68
2022/09/13 07:00:31;;;;;;;13.00;6.30;;;;;;;;;;5322449;28;20102;-67
2022/09/13 07:03:02;;;;;;;9.40;6.60;;;;;;;;;;5323684;28;20273;-66
2022/09/13 07:05:33;;;;;;;7.65;6.75;;;;;;;;;;5321980;28;20011;-66
2022/09/13 07:08:04;;;;;;;11.52;6.95;;;;;;;;;;5323035;28;20018;-68
2022/09/13 07:10:36;;;;;;;8.90;6.95;;;;;;;;;;5322987;28;20020;-66
2022/09/13 07:13:07;;;;;;;7.88;7.00;;;;;;;;;;5322592;28;20028;-68
2022/09/13 07:15:38;;;;;;;11.38;7.60;;;;;;;;;;5322619;28;20274;-68
2022/09/13 07:18:10;;;;;;;10.98;7.00;;;;;;;;;;5323205;28;20027;-68
2022/09/13 07:20:41;;;;;;;8.52;6.70;;;;;;;;;;5321790;28;20015;-67
2022/09/13 07:23:12;;;;;;;12.60;7.75;;;;;;;;;;5323185;28;20024;-67
2022/09/13 07:25:52;;;;;;;8.07;7.25;;;;;;;;;;5322720;28;20020;-69
2022/09/13 07:28:23;;;;;;;10.63;7.47;;;;;;;;;;5320341;28;20103;-70
2022/09/13 07:30:54;;;;;;;11.93;7.80;;;;;;;;;;5322733;28;20098;-69
2022/09/13 07:33:26;;;;;;;9.20;8.40;;;;;;;;;;5322223;28;20098;-68
2022/09/13 07:35:58;;;;;;;10.93;8.93;;;;;;;;;;5323153;28;20023;-68
2022/09/13 07:38:29;;;;;;;10.23;9.05;;;;;;;;;;5322440;28;20312;-68
2022/09/13 07:41:01;;;;;;;10.50;9.60;;;;;;;;;;5322349;28;20040;-69
2022/09/13 07:43:35;;;;;;;10.63;9.52;;;;;;;;;;5322718;28;20778;-71
2022/09/13 07:46:08;;;;;;;11.60;9.85;;;;;;;;;;5323423;28;20033;-67
2022/09/13 07:48:41;;;;;;;11.82;9.52;;;;;;;;;;5322048;28;20023;-68
2022/09/13 07:51:13;;;;;;;15.13;11.00;;;;;;;;;;5323496;28;20412;-67
2022/09/13 07:53:45;;;;;;;13.05;10.77;;;;;;;;;;5322566;28;20031;-67
2022/09/13 07:56:18;;;;;;;15.80;11.55;;;;;;;;;;5322845;28;20102;-67
2022/09/13 07:58:50;;;;;;;22.90;12.98;;;;;;;;;;5322673;28;20051;-67
2022/09/13 08:01:23;;;;;;;20.25;12.77;;;;;;;;;;5322848;28;20031;-68
2022/09/13 08:03:55;;;;;;;17.27;12.20;;;;;;;;;;5322730;28;20020;-70
2022/09/13 08:06:28;;;;;;;18.45;13.48;;;;;;;;;;5322418;28;20069;-69
2022/09/13 08:08:59;;;;;;;16.38;12.52;;;;;;;;;;5322600;28;20023;-70
2022/09/13 08:11:31;;;;;;;17.88;13.23;;;;;;;;;;5322689;28;20023;-70
2022/09/13 08:14:03;;;;;;;21.88;14.55;;;;;;;;;;5323230;28;20374;-69
2022/09/13 08:16:35;;;;;;;29.95;16.40;;;;;;;;;;5321893;28;20019;-70
2022/09/13 08:19:07;;;;;;;25.50;15.57;;;;;;;;;;5322882;28;20077;-68
2022/09/13 08:21:39;;;;;;;24.40;16.63;;;;;;;;;;5322657;28;20250;-71
2022/09/13 08:24:15;;;;;;;19.52;16.63;;;;;;;;;;5322426;28;20046;-67
2022/09/13 08:26:46;;;;;;;19.48;17.48;;;;;;;;;;5322343;28;20046;-67
2022/09/13 08:29:18;;;;;;;19.25;15.50;;;;;;;;;;5322860;28;20039;-67
2022/09/13 08:31:49;;;;;;;18.83;15.65;;;;;;;;;;5321340;28;20028;-67
2022/09/13 08:34:21;;;;;;;18.98;15.02;;;;;;;;;;5322952;28;20098;-67
2022/09/13 08:36:52;;;;;;;17.50;15.68;;;;;;;;;;5324594;28;20122;-67
2022/09/13 08:39:23;;;;;;;21.20;16.43;;;;;;;;;;5326696;28;20007;-67
2022/09/13 08:42:06;;;;;;;19.90;17.08;;;;;;;;;;5326447;28;20257;-67
2022/09/13 08:44:48;;;;;;;23.30;17.77;;;;;;;;;;5325594;28;20419;-67
2022/09/13 08:47:25;;;;;;;21.02;17.50;;;;;;;;;;5326545;28;20042;-68
2022/09/13 08:49:59;;;;;;;19.42;17.35;;;;;;;;;;5326688;28;20445;-67
2022/09/13 08:52:39;;;;;;;21.30;17.95;;;;;;;;;;5325076;28;20042;-66
2022/09/13 08:55:18;;;;;;;22.27;17.75;;;;;;;;;;5326930;28;20055;-67
2022/09/13 08:57:56;;;;;;;21.98;19.27;;;;;;;;;;5325485;28;20091;-67
2022/09/13 09:00:38;;;;;;;22.50;19.55;;;;;;;;;;5325757;28;20061;-67
2022/09/13 09:03:16;;;;;;;19.52;17.15;;;;;;;;;;5326461;28;20030;-67
2022/09/13 09:05:49;;;;;;;20.15;17.92;;;;;;;;;;5325015;28;20011;-67
2022/09/13 09:08:38;;;;;;;21.17;18.98;;;;;;;;;;5326202;28;20023;-67
2022/09/13 09:11:12;;;;;;;21.83;17.15;;;;;;;;;;5326183;28;20016;-67
2022/09/13 09:13:54;;;;;;;18.88;16.67;;;;;;;;;;5324881;28;20386;-67
2022/09/13 09:16:35;;;;;;;18.15;16.35;;;;;;;;;;5325866;28;20042;-67
2022/09/13 09:19:26;;;;;;;17.67;14.60;;;;;;;;;;5325195;28;20030;-67
2022/09/13 09:21:58;;;;;;;18.88;16.17;;;;;;;;;;5326434;28;20023;-67
2022/09/13 09:24:32;;;;;;;17.95;15.13;;;;;;;;;;5325566;28;20369;-67
2022/09/13 09:27:14;;;;;;;17.27;15.10;;;;;;;;;;5325329;28;20024;-67
2022/09/13 09:29:47;;;;;;;16.50;14.80;;;;;;;;;;5324611;28;20128;-69
2022/09/13 09:32:37;;;;;;;15.10;13.30;;;;;;;;;;5325863;28;20122;-70
2022/09/13 09:35:27;;;;;;;17.20;11.88;;;;;;;;;;5325150;28;20024;-70
2022/09/13 09:38:21;;;;;;;14.95;13.38;;;;;;;;;;5325616;28;20027;-70
2022/09/13 09:40:52;;;;;;;14.57;12.63;;;;;;;;;;5324183;28;20019;-70
2022/09/13 09:43:27;;;;;;;16.20;12.48;;;;;;;;;;5325142;28;20356;-71
2022/09/13 09:46:01;;;;;;;15.90;13.40;;;;;;;;;;5325423;28;20012;-67
2022/09/13 09:48:38;;;;;;;15.93;11.93;;;;;;;;;;5322934;28;20382;-68
2022/09/13 09:51:11;;;;;;;12.93;11.25;;;;;;;;;;5325469;28;20028;-67
2022/09/13 09:53:47;;;;;;;12.52;11.23;;;;;;;;;;5324796;28;20035;-68
2022/09/13 09:56:22;;;;;;;13.40;11.05;;;;;;;;;;5324698;28;20003;-68
2022/09/13 09:58:54;;;;;;;14.07;9.75;;;;;;;;;;5324520;28;20027;-68
2022/09/13 10:01:33;;;;;;;10.13;9.00;;;;;;;;;;5324004;28;20090;-67
2022/09/13 10:04:07;;;;;;;12.35;10.95;;;;;;;;;;5324933;28;20031;-69
2022/09/13 10:06:39;;;;;;;12.30;11.13;;;;;;;;;;5324406;28;20041;-66
2022/09/13 10:09:21;;;;;;;13.20;11.68;;;;;;;;;;5323878;28;20102;-67
2022/09/13 10:11:55;;;;;;;11.88;9.27;;;;;;;;;;5324127;27;20383;-68
2022/09/13 10:14:40;;;;;;;12.43;8.95;;;;;;;;;;5324277;28;20046;-67
2022/09/13 10:17:17;;;;;;;12.73;9.30;;;;;;;;;;5323904;28;20028;-67
2022/09/13 10:19:58;;;;;;;12.63;10.23;;;;;;;;;;5324129;28;20012;-68
2022/09/13 10:22:32;;;;;;;15.70;10.82;;;;;;;;;;5323514;28;20475;-68
2022/09/13 10:25:23;;;;;;;12.68;10.45;;;;;;;;;;5324754;28;20370;-67
2022/09/13 10:27:55;;;;;;;11.85;9.38;;;;;;;;;;5324206;28;20020;-67
2022/09/13 10:30:37;;;;;;;13.10;10.05;;;;;;;;;;5323132;28;20547;-67
2022/09/13 10:33:24;;;;;;;10.27;9.23;;;;;;;;;;5324089;28;20035;-67
2022/09/13 10:35:58;;;;;;;13.50;10.57;;;;;;;;;;5324290;28;20034;-68
2022/09/13 10:38:31;;;;;;;13.32;11.88;;;;;;;;;;5322946;28;20015;-67
2022/09/13 10:41:04;;;;;;;15.35;13.70;;;;;;;;;;5324628;28;20027;-67
2022/09/13 10:43:36;;;;;;;15.45;13.68;;;;;;;;;;5322779;28;20015;-67
2022/09/13 10:46:11;;;;;;;15.40;12.15;;;;;;;;;;5320830;28;20214;-67
2022/09/13 10:48:44;;;;;;;15.77;12.73;;;;;;;;;;5323361;28;20470;-67
2022/09/13 10:51:24;;;;;;;15.57;11.48;;;;;;;;;;5323073;28;20016;-68
2022/09/13 10:54:07;;;;;;;14.85;12.85;;;;;;;;;;5323083;28;20031;-67
2022/09/13 10:56:38;;;;;;;13.63;11.80;;;;;;;;;;5323234;28;20038;-67
2022/09/13 10:59:21;;;;;;;15.30;10.57;;;;;;;;;;5322765;28;20023;-68
2022/09/13 11:02:21;;;;;;;11.35;9.55;;;;;;;;;;5323240;28;20019;-69
2022/09/13 11:05:05;;;;;;;14.25;9.88;;;;;;;;;;5322414;28;20034;-68
2022/09/13 11:07:55;;;;;;;12.57;8.25;;;;;;;;;;5323353;28;20035;-67
2022/09/13 11:10:30;;;;;;;10.18;7.70;;;;;;;;;;5323071;28;20028;-66
2022/09/13 11:13:19;;;;;;;11.60;9.30;;;;;;;;;;5323038;28;20076;-67
2022/09/13 11:15:59;;;;;;;10.50;8.68;;;;;;;;;;5323080;28;20035;-67
2022/09/13 11:18:45;;;;;;;8.95;7.78;;;;;;;;;;5322766;28;20019;-67
2022/09/13 11:21:25;;;;;;;10.85;8.45;;;;;;;;;;5323815;28;20019;-67
2022/09/13 11:24:11;;;;;;;8.55;6.72;;;;;;;;;;5323450;28;20044;-66
2022/09/13 11:27:01;;;;;;;11.80;8.10;;;;;;;;;;5322244;28;20874;-67
2022/09/13 11:29:52;;;;;;;6.63;5.70;;;;;;;;;;5322909;28;20039;-66
2022/09/13 11:32:31;;;;;;;8.23;5.00;;;;;;;;;;5322620;28;20500;-66
2022/09/13 11:35:27;;;;;;;8.25;6.13;;;;;;;;;;5323511;28;20022;-66
2022/09/13 11:38:10;;;;;;;12.50;4.80;;;;;;;;;;5323677;28;20372;-66
2022/09/13 11:40:44;;;;;;;5.65;4.75;;;;;;;;;;5322238;28;20024;-67
2022/09/13 11:43:27;;;;;;;8.15;6.00;;;;;;;;;;5323303;28;20114;-67
2022/09/13 11:46:05;;;;;;;8.25;6.68;;;;;;;;;;5323411;28;20016;-66
2022/09/13 11:48:49;;;;;;;9.60;5.75;;;;;;;;;;5322208;28;20023;-67
2022/09/13 11:51:24;;;;;;;8.45;5.85;;;;;;;;;;5323324;28;20077;-67
2022/09/13 11:54:09;;;;;;;7.70;2.80;;;;;;;;;;5322585;28;20478;-66
2022/09/13 11:56:53;;;;;;;6.78;4.28;;;;;;;;;;5322846;28;20019;-66
2022/09/13 11:59:24;;;;;;;6.38;2.97;;;;;;;;;;5322968;28;20378;-67
2022/09/13 12:02:01;;;;;;;5.33;3.70;;;;;;;;;;5322118;28;20031;-66
2022/09/13 12:04:37;;;;;;;5.63;3.15;;;;;;;;;;5322854;28;20367;-66
2022/09/13 12:07:13;;;;;;;6.68;2.95;;;;;;;;;;5323110;28;20015;-67
2022/09/13 12:09:52;;;;;;;9.48;3.88;;;;;;;;;;5321736;28;20184;-66
2022/09/13 12:12:25;;;;;;;7.18;3.90;;;;;;;;;;5326587;28;20083;-67
2022/09/13 12:14:59;;;;;;;3.58;2.58;;;;;;;;;;5326740;28;20022;-67
2022/09/13 12:17:35;;;;;;;6.28;2.28;;;;;;;;;;5326701;28;20133;-67
2022/09/13 12:20:13;;;;;;;4.07;2.30;;;;;;;;;;5327303;28;20019;-66
2022/09/13 12:22:46;;;;;;;5.57;2.25;;;;;;;;;;5325858;28;20413;-67
2022/09/13 12:25:20;;;;;;;7.20;3.28;;;;;;;;;;5327247;28;20106;-68
2022/09/13 12:28:07;;;;;;;4.63;1.75;;;;;;;;;;5326647;27;20020;-68
2022/09/13 12:30:42;;;;;;;4.45;1.65;;;;;;;;;;5325643;27;20023;-67
2022/09/13 12:33:14;;;;;;;3.55;2.35;;;;;;;;;;5326735;27;20039;-68
2022/09/13 12:35:52;;;;;;;3.83;2.20;;;;;;;;;;5325973;28;20413;-68
2022/09/13 12:38:40;;;;;;;7.40;1.73;;;;;;;;;;5326718;28;20183;-69
2022/09/13 12:41:23;;;;;;;4.30;1.95;;;;;;;;;;5326785;28;20031;-70
2022/09/13 12:44:01;;;;;;;4.45;2.55;;;;;;;;;;5326160;27;20028;-70
2022/09/13 12:46:35;;;;;;;5.17;2.27;;;;;;;;;;5326245;28;20528;-71
2022/09/13 12:49:15;;;;;;;5.88;2.40;;;;;;;;;;5326758;28;20068;-71
2022/09/13 12:52:05;;;;;;;4.65;1.30;;;;;;;;;;5325240;28;20030;-70
2022/09/13 12:54:56;;;;;;;5.68;1.83;;;;;;;;;;5326021;28;20382;-69
2022/09/13 12:57:27;;;;;;;3.50;0.95;;;;;;;;;;5325105;28;20032;-69
2022/09/13 13:00:13;;;;;;;3.97;1.10;;;;;;;;;;5326370;28;20018;-69
2022/09/13 13:02:55;;;;;;;4.35;0.90;;;;;;;;;;5325940;28;20027;-69
2022/09/13 13:05:29;;;;;;;1.83;0.82;;;;;;;;;;5324649;28;20031;-69
2022/09/13 13:08:05;;;;;;;4.85;0.75;;;;;;;;;;5326469;28;20019;-69
2022/09/13 13:10:37;;;;;;;2.92;0.80;;;;;;;;;;5325644;28;20024;-69
2022/09/13 13:13:11;;;;;;;9.30;1.42;;;;;;;;;;5325766;28;20509;-67
2022/09/13 13:15:42;;;;;;;3.72;0.80;;;;;;;;;;5325685;28;20426;-68
2022/09/13 13:18:32;;;;;;;5.47;0.80;;;;;;;;;;5325285;28;20023;-67
2022/09/13 13:21:05;;;;;;;4.53;0.90;;;;;;;;;;5325755;28;20684;-69
2022/09/13 13:23:37;;;;;;;4.50;0.93;;;;;;;;;;5325560;28;20388;-67
2022/09/13 13:26:31;;;;;;;3.30;1.67;;;;;;;;;;5325209;28;20020;-68
2022/09/13 13:29:14;;;;;;;3.85;1.55;;;;;;;;;;5325677;28;20023;-68
2022/09/13 13:31:51;;;;;;;6.53;1.10;;;;;;;;;;5324812;28;20035;-68
2022/09/13 13:34:22;;;;;;;8.90;1.10;;;;;;;;;;5324966;28;20129;-68
2022/09/13 13:37:02;;;;;;;6.47;1.63;;;;;;;;;;5325250;28;20495;-68
2022/09/13 13:39:41;;;;;;;3.53;2.50;;;;;;;;;;5324160;28;20285;-67
2022/09/13 13:42:23;;;;;;;5.25;1.83;;;;;;;;;;5325673;28;20344;-69
2022/09/13 13:44:56;;;;;;;4.85;2.50;;;;;;;;;;5325449;28;20114;-69
2022/09/13 13:47:27;;;;;;;5.28;2.00;;;;;;;;;;5323859;28;20092;-69
2022/09/13 13:50:11;;;;;;;8.00;1.85;;;;;;;;;;5325353;28;20032;-68
2022/09/13 13:52:42;;;;;;;3.45;1.20;;;;;;;;;;5324735;28;20403;-68
2022/09/13 13:55:22;;;;;;;4.07;1.30;;;;;;;;;;5324506;28;20035;-69
2022/09/13 13:58:01;;;;;;;8.73;1.75;;;;;;;;;;5324750;28;20352;-68
2022/09/13 14:00:33;;;;;;;3.65;1.60;;;;;;;;;;5323752;28;20015;-68
2022/09/13 14:03:17;;;;;;;4.78;1.52;;;;;;;;;;5325314;28;20461;-68
2022/09/13 14:06:17;;;;;;;5.22;2.15;;;;;;;;;;5324431;28;20024;-68
2022/09/13 14:08:54;;;;;;;3.60;1.15;;;;;;;;;;5314324;28;20622;-68
2022/09/13 14:11:29;;;;;;;4.70;2.30;;;;;;;;;;5324738;28;20039;-68
2022/09/13 14:14:19;;;;;;;6.07;2.60;;;;;;;;;;5325103;28;20039;-68
2022/09/13 14:16:53;;;;;;;5.53;2.53;;;;;;;;;;5324221;28;20099;-68
2022/09/13 14:19:39;;;;;;;3.88;1.80;;;;;;;;;;5324271;28;20045;-69
2022/09/13 14:22:24;;;;;;;5.93;2.17;;;;;;;;;;5324023;28;20015;-68
2022/09/13 14:24:56;;;;;;;3.40;1.58;;;;;;;;;;5324328;28;20026;-69
2022/09/13 14:27:27;;;;;;;4.20;1.98;;;;;;;;;;5323698;28;20023;-69
2022/09/13 14:30:00;;;;;;;4.20;2.42;;;;;;;;;;5324023;28;20474;-68
2022/09/13 14:32:39;;;;;;;3.67;2.20;;;;;;;;;;5323848;28;20051;-68
2022/09/13 14:35:36;;;;;;;4.47;2.60;;;;;;;;;;5324099;28;20035;-68
2022/09/13 14:38:18;;;;;;;5.45;1.95;;;;;;;;;;5316880;28;20027;-69
2022/09/13 14:40:51;;;;;;;5.95;1.50;;;;;;;;;;5316339;28;20393;-68
2022/09/13 14:43:23;;;;;;;3.60;1.00;;;;;;;;;;5321474;28;20015;-68
2022/09/13 14:45:57;;;;;;;5.10;1.60;;;;;;;;;;5321251;28;20110;-68
2022/09/13 14:48:31;;;;;;;2.53;0.85;;;;;;;;;;5322939;28;20056;-68
2022/09/13 14:51:06;;;;;;;5.13;1.45;;;;;;;;;;5323683;28;20096;-68
2022/09/13 14:53:38;;;;;;;4.05;1.25;;;;;;;;;;5323704;28;20375;-68
2022/09/13 14:56:30;;;;;;;3.42;1.05;;;;;;;;;;5324298;28;20047;-68
2022/09/13 14:59:03;;;;;;;4.88;1.20;;;;;;;;;;5323602;28;20118;-68
2022/09/13 15:01:34;;;;;;;3.45;1.60;;;;;;;;;;5323771;28;20019;-68
2022/09/13 15:04:06;;;;;;;3.08;1.30;;;;;;;;;;5323310;28;20023;-68
2022/09/13 15:06:38;;;;;;;4.25;1.33;;;;;;;;;;5323337;28;20114;-68
2022/09/13 15:09:10;;;;;;;3.95;1.17;;;;;;;;;;5324029;28;20095;-68
2022/09/13 15:11:53;;;;;;;4.47;0.98;;;;;;;;;;5322667;28;20103;-68
2022/09/13 15:14:36;;;;;;;2.97;1.02;;;;;;;;;;5323818;28;20599;-68
2022/09/13 15:17:12;;;;;;;3.08;0.98;;;;;;;;;;5323981;28;20055;-68
2022/09/13 15:19:47;;;;;;;5.07;0.90;;;;;;;;;;5322690;28;20084;-68
2022/09/13 15:22:23;;;;;;;3.95;0.90;;;;;;;;;;5323964;28;20429;-68
2022/09/13 15:24:55;;;;;;;5.63;0.90;;;;;;;;;;5322930;28;20033;-68
2022/09/13 15:27:46;;;;;;;2.25;0.90;;;;;;;;;;5322376;28;20023;-68